Time;durP1;ratioP1;P1;durP2;ratioP2;P2;SDS_P1;SDS_P2;PMS_P1;PMS_P2;Temp;Humidity;BMP_temperature;BMP_pressure;BME280_temperature;BME280_humidity;BME280_pressure;Samples;Min_cycle;Max_cycle;Signal;HPM_P1;HPM_P2
2020/12/08 00:02:41;;;;;;;21.40;10.75;;;2.60;99.90;;;;;;5010263;28;20042;-56
2020/12/08 00:05:28;;;;;;;16.80;8.98;;;2.60;99.90;;;;;;5010787;28;20410;-57
2020/12/08 00:08:15;;;;;;;20.13;9.63;;;2.60;99.90;;;;;;5010651;28;20121;-56
2020/12/08 00:11:01;;;;;;;17.75;9.30;;;2.40;99.90;;;;;;5011440;28;20030;-56
2020/12/08 00:13:47;;;;;;;20.27;9.25;;;2.30;99.90;;;;;;5012112;28;20038;-56
2020/12/08 00:16:33;;;;;;;18.90;9.73;;;2.30;99.90;;;;;;5014695;28;20038;-56
2020/12/08 00:19:19;;;;;;;18.08;9.45;;;2.30;99.90;;;;;;5015398;28;20034;-56
2020/12/08 00:22:06;;;;;;;18.40;9.60;;;2.40;99.90;;;;;;5014873;28;20124;-56
2020/12/08 00:24:52;;;;;;;16.52;8.75;;;2.40;99.90;;;;;;5000044;28;20038;-56
2020/12/08 00:27:40;;;;;;;17.40;9.00;;;2.30;99.90;;;;;;5015021;28;20038;-56
2020/12/08 00:30:26;;;;;;;17.67;9.27;;;2.20;99.90;;;;;;5013786;28;20034;-53
2020/12/08 00:33:12;;;;;;;18.88;9.60;;;2.20;99.90;;;;;;5014345;28;20037;-56
2020/12/08 00:35:58;;;;;;;21.63;9.57;;;2.00;99.90;;;;;;5014778;28;20041;-56
2020/12/08 00:38:44;;;;;;;17.65;8.50;;;2.00;99.90;;;;;;5013641;28;20034;-56
2020/12/08 00:41:31;;;;;;;20.67;9.73;;;1.90;99.90;;;;;;5014095;28;20581;-55
2020/12/08 00:44:17;;;;;;;22.13;9.20;;;1.80;99.90;;;;;;5014132;28;20117;-56
2020/12/08 00:47:04;;;;;;;17.98;9.15;;;1.80;99.90;;;;;;5013765;28;20073;-56
2020/12/08 00:49:50;;;;;;;18.83;10.00;;;1.80;99.90;;;;;;5012933;28;20038;-56
2020/12/08 00:52:36;;;;;;;18.42;8.55;;;1.60;99.90;;;;;;5014689;28;20034;-56
2020/12/08 00:55:22;;;;;;;17.10;8.43;;;1.50;99.90;;;;;;5013895;28;20554;-56
2020/12/08 00:58:08;;;;;;;17.77;8.98;;;1.40;99.90;;;;;;5014457;28;20505;-56
2020/12/08 01:00:54;;;;;;;17.70;8.63;;;1.40;99.90;;;;;;5013943;28;20399;-56
2020/12/08 01:03:40;;;;;;;19.90;9.45;;;1.40;99.90;;;;;;5013935;28;20045;-56
2020/12/08 01:06:26;;;;;;;20.45;9.43;;;1.40;99.90;;;;;;5013345;28;20129;-56
2020/12/08 01:09:12;;;;;;;20.10;9.50;;;1.50;99.90;;;;;;5013202;28;20042;-54
2020/12/08 01:11:58;;;;;;;20.17;9.35;;;1.50;99.90;;;;;;5014368;28;20101;-56
2020/12/08 01:14:44;;;;;;;17.90;8.55;;;1.40;99.90;;;;;;5014296;28;20475;-56
2020/12/08 01:17:33;;;;;;;19.85;9.60;;;1.40;99.90;;;;;;5013602;28;20042;-57
2020/12/08 01:20:19;;;;;;;17.65;8.45;;;1.40;99.90;;;;;;5013522;28;20113;-56
2020/12/08 01:23:06;;;;;;;19.73;8.95;;;1.40;99.90;;;;;;5013706;28;20048;-56
2020/12/08 01:25:52;;;;;;;18.80;8.40;;;1.40;99.90;;;;;;5012651;28;20542;-56
2020/12/08 01:28:40;;;;;;;21.15;9.35;;;1.50;99.90;;;;;;5014015;28;20596;-56
2020/12/08 01:31:33;;;;;;;19.75;9.10;;;1.50;99.90;;;;;;5012644;28;20113;-56
2020/12/08 01:34:19;;;;;;;20.52;9.52;;;1.50;99.90;;;;;;5012851;28;20038;-56
2020/12/08 01:37:05;;;;;;;18.65;9.00;;;1.50;99.90;;;;;;5013315;28;20046;-57
2020/12/08 01:39:51;;;;;;;16.98;8.85;;;1.50;99.90;;;;;;5013473;28;20037;-57
2020/12/08 01:42:37;;;;;;;18.05;8.82;;;1.30;99.90;;;;;;5013672;28;20484;-56
2020/12/08 01:45:24;;;;;;;17.13;7.72;;;1.20;99.90;;;;;;5013611;28;20050;-57
2020/12/08 01:48:10;;;;;;;13.98;7.68;;;1.20;99.90;;;;;;5012773;28;20422;-57
2020/12/08 01:50:56;;;;;;;17.98;8.43;;;1.20;99.90;;;;;;5012791;28;20104;-56
2020/12/08 01:53:45;;;;;;;16.98;8.20;;;1.20;99.90;;;;;;5012496;28;20084;-56
2020/12/08 01:56:31;;;;;;;18.33;8.85;;;1.10;99.90;;;;;;5012950;28;20458;-57
2020/12/08 01:59:17;;;;;;;14.05;7.13;;;1.00;99.90;;;;;;5013499;28;20048;-57
2020/12/08 02:02:04;;;;;;;15.82;8.00;;;0.90;99.90;;;;;;5013074;28;20049;-57
2020/12/08 02:04:51;;;;;;;17.35;8.02;;;0.90;99.90;;;;;;5012963;28;20033;-57
2020/12/08 02:07:44;;;;;;;18.83;8.63;;;0.90;99.90;;;;;;5012934;28;20030;-57
2020/12/08 02:10:30;;;;;;;15.30;7.82;;;0.90;99.90;;;;;;5013172;28;20048;-57
2020/12/08 02:13:17;;;;;;;22.80;9.50;;;1.10;99.90;;;;;;5013155;28;20505;-56
2020/12/08 02:16:03;;;;;;;21.10;9.15;;;1.20;99.90;;;;;;5012517;28;20044;-52
2020/12/08 02:18:49;;;;;;;20.33;9.13;;;1.20;99.90;;;;;;5012571;28;20034;-57
2020/12/08 02:21:35;;;;;;;18.38;8.57;;;1.20;99.90;;;;;;5012650;28;20030;-54
2020/12/08 02:24:21;;;;;;;23.00;8.00;;;1.30;99.90;;;;;;5012973;28;20105;-56
2020/12/08 02:27:07;;;;;;;19.80;8.88;;;1.30;99.90;;;;;;5012513;28;20499;-57
2020/12/08 02:29:53;;;;;;;19.55;9.27;;;1.40;99.90;;;;;;5012502;28;20038;-57
2020/12/08 02:32:40;;;;;;;20.30;9.18;;;1.40;99.90;;;;;;5012235;28;20124;-57
2020/12/08 02:35:26;;;;;;;16.63;8.15;;;1.40;99.90;;;;;;5005942;28;20034;-56
2020/12/08 02:38:12;;;;;;;18.13;8.52;;;1.40;99.90;;;;;;4997498;28;20049;-56
2020/12/08 02:40:58;;;;;;;17.27;8.18;;;1.40;99.90;;;;;;5011179;28;20084;-55
2020/12/08 02:43:44;;;;;;;20.73;8.63;;;1.30;99.90;;;;;;5011626;28;20491;-53
2020/12/08 02:46:30;;;;;;;17.02;8.57;;;1.40;99.90;;;;;;5012142;28;20030;-56
2020/12/08 02:49:18;;;;;;;16.45;8.70;;;1.40;99.90;;;;;;5011107;28;20486;-55
2020/12/08 02:52:04;;;;;;;17.48;8.77;;;1.40;99.90;;;;;;4997420;28;20072;-54
2020/12/08 02:54:50;;;;;;;18.98;8.02;;;1.30;99.90;;;;;;5010687;28;20498;-56
2020/12/08 02:57:36;;;;;;;18.05;8.40;;;1.30;99.90;;;;;;5012304;28;20109;-56
2020/12/08 03:00:22;;;;;;;19.13;9.13;;;1.20;99.90;;;;;;5010625;28;20033;-55
2020/12/08 03:03:08;;;;;;;21.70;10.05;;;1.30;99.90;;;;;;5011935;28;20518;-55
2020/12/08 03:05:54;;;;;;;20.42;9.63;;;1.30;99.90;;;;;;5011777;28;20033;-56
2020/12/08 03:08:40;;;;;;;21.05;9.40;;;1.30;99.90;;;;;;5011750;28;20037;-56
2020/12/08 03:11:31;;;;;;;21.27;9.52;;;1.30;99.90;;;;;;5010133;28;20033;-56
2020/12/08 03:14:17;;;;;;;19.73;9.30;;;1.40;99.90;;;;;;5010795;28;20525;-54
2020/12/08 03:17:06;;;;;;;20.15;8.73;;;1.50;99.90;;;;;;5010668;28;20042;-55
2020/12/08 03:19:52;;;;;;;20.40;9.80;;;1.50;99.90;;;;;;5011752;28;20505;-55
2020/12/08 03:22:40;;;;;;;23.23;11.23;;;1.60;99.90;;;;;;5012080;28;20042;-57
2020/12/08 03:25:26;;;;;;;21.70;10.02;;;1.60;99.90;;;;;;5010921;28;20405;-55
2020/12/08 03:28:12;;;;;;;23.10;10.82;;;1.70;99.90;;;;;;5011874;28;20038;-57
2020/12/08 03:30:58;;;;;;;21.67;9.88;;;1.80;99.90;;;;;;5010596;28;20117;-57
2020/12/08 03:33:45;;;;;;;26.27;12.15;;;1.80;99.90;;;;;;5011682;28;20037;-57
2020/12/08 03:36:31;;;;;;;24.13;11.13;;;2.00;99.90;;;;;;5009614;28;20046;-54
2020/12/08 03:39:17;;;;;;;24.63;12.07;;;2.10;99.90;;;;;;5010165;28;20475;-55
2020/12/08 03:42:04;;;;;;;23.30;11.23;;;2.10;99.90;;;;;;5011395;28;20041;-54
2020/12/08 03:44:50;;;;;;;24.65;11.20;;;2.20;99.90;;;;;;5011778;28;20075;-55
2020/12/08 03:47:36;;;;;;;25.77;11.23;;;2.30;99.90;;;;;;5010858;28;20105;-54
2020/12/08 03:50:22;;;;;;;26.80;11.73;;;2.10;99.90;;;;;;5011054;28;20038;-56
2020/12/08 03:53:08;;;;;;;24.73;11.55;;;2.20;99.90;;;;;;5010308;28;20034;-56
2020/12/08 03:55:57;;;;;;;25.10;11.13;;;2.20;99.90;;;;;;5010368;28;20132;-55
2020/12/08 03:58:44;;;;;;;26.33;11.82;;;2.20;99.90;;;;;;5011476;28;20550;-57
2020/12/08 04:01:30;;;;;;;24.80;11.15;;;2.20;99.90;;;;;;5011568;28;20038;-57
2020/12/08 04:04:17;;;;;;;24.23;12.00;;;2.20;99.90;;;;;;5011106;28;20038;-57
2020/12/08 04:07:03;;;;;;;20.48;10.13;;;2.20;99.90;;;;;;5011543;28;20527;-57
2020/12/08 04:09:49;;;;;;;23.55;10.88;;;2.10;99.90;;;;;;5010427;28;20513;-55
2020/12/08 04:12:35;;;;;;;24.10;10.88;;;2.10;99.90;;;;;;4997468;28;20395;-57
2020/12/08 04:15:21;;;;;;;28.98;11.10;;;2.10;99.90;;;;;;5010949;28;20463;-55
2020/12/08 04:18:08;;;;;;;26.75;11.93;;;2.20;99.90;;;;;;5010432;28;20072;-57
2020/12/08 04:20:54;;;;;;;24.40;11.57;;;2.30;99.90;;;;;;5010900;28;20050;-56
2020/12/08 04:23:40;;;;;;;27.88;12.70;;;2.30;99.90;;;;;;5010743;28;20041;-57
2020/12/08 04:26:31;;;;;;;22.45;10.75;;;2.40;99.90;;;;;;5010647;28;20038;-57
2020/12/08 04:29:17;;;;;;;19.65;9.52;;;2.40;99.90;;;;;;5011709;28;20037;-57
2020/12/08 04:32:04;;;;;;;22.52;10.70;;;2.60;99.90;;;;;;5010905;28;20406;-54
2020/12/08 04:34:50;;;;;;;25.88;11.23;;;2.70;99.90;;;;;;5011525;28;20125;-57
2020/12/08 04:37:36;;;;;;;20.70;10.30;;;2.70;99.90;;;;;;5010271;28;20129;-57
2020/12/08 04:40:23;;;;;;;22.90;10.55;;;2.80;99.90;;;;;;5010147;28;20026;-57
2020/12/08 04:43:09;;;;;;;26.60;13.52;;;2.80;99.90;;;;;;5010753;28;20100;-56
2020/12/08 04:45:55;;;;;;;37.22;15.73;;;2.70;99.90;;;;;;5011052;28;20041;-57
2020/12/08 04:48:41;;;;;;;26.75;12.27;;;2.70;99.90;;;;;;5023741;28;20487;-57
2020/12/08 04:51:27;;;;;;;25.95;12.57;;;2.70;99.90;;;;;;5029848;28;20065;-56
2020/12/08 04:54:13;;;;;;;24.30;12.25;;;2.70;99.90;;;;;;5031791;28;20454;-55
2020/12/08 04:56:59;;;;;;;26.13;11.90;;;2.80;99.90;;;;;;5029062;28;20041;-54
2020/12/08 04:59:46;;;;;;;25.30;11.10;;;2.80;99.90;;;;;;5014755;28;20098;-56
2020/12/08 05:02:32;;;;;;;25.42;11.25;;;2.70;99.90;;;;;;5034026;28;20128;-56
2020/12/08 05:05:20;;;;;;;24.92;11.75;;;2.70;99.90;;;;;;5034313;28;20069;-56
2020/12/08 05:08:14;;;;;;;25.40;11.27;;;2.70;99.90;;;;;;5033447;28;20449;-56
2020/12/08 05:11:09;;;;;;;24.77;11.75;;;2.70;99.90;;;;;;5034626;28;20053;-56
2020/12/08 05:14:06;;;;;;;26.83;12.25;;;2.60;99.90;;;;;;5033714;28;20158;-56
2020/12/08 05:17:03;;;;;;;26.90;12.02;;;2.50;99.90;;;;;;5032786;28;20577;-55
2020/12/08 05:20:08;;;;;;;28.58;12.15;;;2.60;99.90;;;;;;5013721;28;20050;-56
2020/12/08 05:22:56;;;;;;;22.60;12.10;;;2.70;99.90;;;;;;5013740;28;20060;-56
2020/12/08 05:25:46;;;;;;;26.17;11.57;;;2.80;99.90;;;;;;5012004;28;20037;-56
2020/12/08 05:28:33;;;;;;;26.60;11.73;;;2.80;99.90;;;;;;5013381;28;20038;-58
2020/12/08 05:31:28;;;;;;;24.02;11.30;;;2.90;99.90;;;;;;5012835;28;20053;-59
2020/12/08 05:34:19;;;;;;;26.77;12.57;;;2.90;99.90;;;;;;5012887;28;20038;-59
2020/12/08 05:37:10;;;;;;;26.25;11.48;;;2.90;99.90;;;;;;5012390;28;20137;-56
2020/12/08 05:39:57;;;;;;;27.48;12.05;;;3.00;99.90;;;;;;4998332;28;20080;-58
2020/12/08 05:42:47;;;;;;;27.48;12.85;;;3.10;99.90;;;;;;4998726;28;20042;-55
2020/12/08 05:45:33;;;;;;;24.52;11.80;;;3.10;99.90;;;;;;5011908;28;20034;-56
2020/12/08 05:48:22;;;;;;;23.92;11.07;;;2.80;99.90;;;;;;5023461;28;20049;-56
2020/12/08 05:51:08;;;;;;;23.95;11.23;;;2.90;99.90;;;;;;5032368;28;20065;-55
2020/12/08 05:53:55;;;;;;;27.58;13.48;;;2.80;99.90;;;;;;5032882;28;20034;-59
2020/12/08 05:56:41;;;;;;;30.15;13.38;;;2.80;99.90;;;;;;5018035;28;20048;-56
2020/12/08 05:59:28;;;;;;;29.38;13.18;;;2.70;99.90;;;;;;5032200;28;20095;-58
2020/12/08 06:02:15;;;;;;;28.05;12.52;;;2.50;99.90;;;;;;5012729;28;20096;-56
2020/12/08 06:05:01;;;;;;;26.60;12.30;;;2.50;99.90;;;;;;5011714;28;20069;-53
2020/12/08 06:07:47;;;;;;;26.40;12.25;;;2.60;99.90;;;;;;5010370;28;20042;-55
2020/12/08 06:10:53;;;;;;;27.02;12.32;;;2.50;99.90;;;;;;5026626;28;20053;-58
2020/12/08 06:13:47;;;;;;;37.33;14.85;;;2.40;99.90;;;;;;5013079;28;20044;-58
2020/12/08 06:16:33;;;;;;;31.23;12.82;;;2.50;99.90;;;;;;5013164;28;20384;-57
2020/12/08 06:19:19;;;;;;;24.73;11.45;;;2.70;99.90;;;;;;5031057;28;20053;-57
2020/12/08 06:22:12;;;;;;;28.15;13.00;;;2.80;99.90;;;;;;5031586;28;20041;-58
2020/12/08 06:24:58;;;;;;;25.33;12.52;;;2.80;99.90;;;;;;5031252;28;20084;-57
2020/12/08 06:27:44;;;;;;;27.17;12.48;;;2.80;99.90;;;;;;5030680;28;20107;-57
2020/12/08 06:30:30;;;;;;;27.92;12.35;;;2.80;99.90;;;;;;5031447;28;20112;-56
2020/12/08 06:33:16;;;;;;;27.67;11.75;;;2.70;99.90;;;;;;5033062;28;20033;-55
2020/12/08 06:36:03;;;;;;;24.38;11.68;;;3.10;99.90;;;;;;5032142;28;20052;-56
2020/12/08 06:39:08;;;;;;;27.95;12.63;;;2.80;99.90;;;;;;5032165;28;20127;-56
2020/12/08 06:41:54;;;;;;;25.30;12.27;;;2.70;99.90;;;;;;5016896;28;20168;-53
2020/12/08 06:44:40;;;;;;;25.55;11.75;;;2.80;99.90;;;;;;5032056;28;20034;-55
2020/12/08 06:47:27;;;;;;;25.85;12.68;;;2.80;99.90;;;;;;5031233;28;20041;-57
2020/12/08 06:50:29;;;;;;;34.45;15.13;;;2.80;99.90;;;;;;5030890;28;20124;-57
2020/12/08 06:53:15;;;;;;;31.23;13.07;;;2.70;99.90;;;;;;5031399;28;20033;-57
2020/12/08 06:56:01;;;;;;;28.75;12.77;;;2.70;99.90;;;;;;5030432;28;20457;-57
2020/12/08 06:58:47;;;;;;;33.28;13.25;;;2.50;99.90;;;;;;5032004;28;20091;-56
2020/12/08 07:01:35;;;;;;;23.67;11.38;;;2.50;99.90;;;;;;5030708;28;20048;-56
2020/12/08 07:04:24;;;;;;;31.02;12.35;;;2.50;99.90;;;;;;5030600;28;20038;-57
2020/12/08 07:07:12;;;;;;;25.50;12.30;;;2.50;99.90;;;;;;5017007;28;20150;-55
2020/12/08 07:09:59;;;;;;;29.13;12.60;;;2.40;99.90;;;;;;5030688;28;20041;-56
2020/12/08 07:12:50;;;;;;;30.00;13.52;;;2.30;99.90;;;;;;5030410;28;20076;-54
2020/12/08 07:15:36;;;;;;;24.83;11.90;;;2.30;99.90;;;;;;5016442;28;20033;-57
2020/12/08 07:18:22;;;;;;;26.55;11.25;;;2.30;99.90;;;;;;5030451;28;20041;-57
2020/12/08 07:21:13;;;;;;;27.88;12.65;;;2.10;99.90;;;;;;5030511;28;20026;-57
2020/12/08 07:23:59;;;;;;;32.78;13.18;;;2.00;99.90;;;;;;5030814;28;20045;-57
2020/12/08 07:26:46;;;;;;;26.92;11.77;;;2.00;99.90;;;;;;5030970;28;20045;-57
2020/12/08 07:29:32;;;;;;;28.00;12.10;;;2.10;99.90;;;;;;5030519;28;20674;-57
2020/12/08 07:32:27;;;;;;;29.30;12.25;;;2.10;99.90;;;;;;5018075;28;20029;-57
2020/12/08 07:35:29;;;;;;;34.33;12.50;;;2.10;99.90;;;;;;5031374;28;20030;-57
2020/12/08 07:38:15;;;;;;;;;;;2.10;99.90;;;;;;5031924;28;20102;-59
2020/12/08 07:41:03;;;;;;;32.75;12.85;;;2.00;99.90;;;;;;5032723;28;19913;-58
2020/12/08 07:43:51;;;;;;;26.58;12.15;;;2.00;99.90;;;;;;5030718;28;20128;-57
2020/12/08 07:46:46;;;;;;;37.45;12.60;;;2.10;99.90;;;;;;5030683;28;20482;-54
2020/12/08 07:49:40;;;;;;;29.73;12.65;;;2.10;99.90;;;;;;5012771;28;20029;-58
2020/12/08 07:52:26;;;;;;;28.15;12.20;;;2.20;99.90;;;;;;5012244;28;20044;-58
2020/12/08 07:55:12;;;;;;;38.05;16.45;;;2.30;99.90;;;;;;5010461;28;20033;-58
2020/12/08 07:57:58;;;;;;;33.45;13.15;;;2.50;99.90;;;;;;5010310;28;20129;-59
2020/12/08 08:00:44;;;;;;;26.65;13.10;;;2.50;99.90;;;;;;5011956;28;20030;-58
2020/12/08 08:03:30;;;;;;;32.20;12.73;;;2.40;99.90;;;;;;5009711;28;20504;-57
2020/12/08 08:06:19;;;;;;;33.47;13.43;;;2.40;99.90;;;;;;5011022;28;20044;-57
2020/12/08 08:09:07;;;;;;;27.35;12.10;;;2.40;99.90;;;;;;5011139;28;20092;-57
2020/12/08 08:11:53;;;;;;;28.50;12.52;;;2.50;99.90;;;;;;4997485;28;20038;-57
2020/12/08 08:14:39;;;;;;;26.80;12.10;;;2.60;99.90;;;;;;5010243;28;20487;-57
2020/12/08 08:17:25;;;;;;;25.77;11.57;;;2.70;99.90;;;;;;5015201;28;20049;-57
2020/12/08 08:20:11;;;;;;;28.05;12.13;;;2.80;99.90;;;;;;5030695;28;20030;-57
2020/12/08 08:22:57;;;;;;;27.42;13.07;;;2.90;99.90;;;;;;5016418;28;20095;-56
2020/12/08 08:25:43;;;;;;;25.60;11.63;;;3.00;99.90;;;;;;5031014;28;20041;-57
2020/12/08 08:28:29;;;;;;;25.30;11.02;;;2.90;99.90;;;;;;5030856;28;20418;-57
2020/12/08 08:31:16;;;;;;;26.00;11.55;;;3.00;99.90;;;;;;5031413;28;20045;-57
2020/12/08 08:34:02;;;;;;;30.15;12.40;;;3.20;99.90;;;;;;5030540;28;20121;-57
2020/12/08 08:36:53;;;;;;;21.75;10.88;;;3.10;99.90;;;;;;5033270;28;20057;-57
2020/12/08 08:39:39;;;;;;;25.77;12.40;;;3.40;99.90;;;;;;5033485;28;20036;-57
2020/12/08 08:42:25;;;;;;;25.02;11.73;;;3.50;99.90;;;;;;5033909;28;20041;-55
2020/12/08 08:45:13;;;;;;;27.08;12.40;;;3.60;99.90;;;;;;5034485;28;20044;-56
2020/12/08 08:47:59;;;;;;;27.98;12.00;;;3.60;99.90;;;;;;5034256;28;20454;-57
2020/12/08 08:50:49;;;;;;;24.88;11.38;;;3.40;99.90;;;;;;5033758;28;20033;-57
2020/12/08 08:53:36;;;;;;;23.83;12.17;;;3.50;99.90;;;;;;5033260;28;20375;-57
2020/12/08 08:56:22;;;;;;;26.33;12.70;;;3.60;99.90;;;;;;5034972;28;20033;-54
2020/12/08 08:59:09;;;;;;;27.60;11.93;;;3.70;99.90;;;;;;5033782;28;20124;-56
2020/12/08 09:01:55;;;;;;;23.42;12.32;;;3.70;99.90;;;;;;5018956;28;20048;-52
2020/12/08 09:04:41;;;;;;;29.20;13.27;;;3.80;99.90;;;;;;5033451;28;20048;-55
2020/12/08 09:07:29;;;;;;;24.00;11.88;;;4.00;99.90;;;;;;5033702;28;20109;-57
2020/12/08 09:10:15;;;;;;;23.45;11.90;;;3.90;99.90;;;;;;5034009;28;20065;-56
2020/12/08 09:13:01;;;;;;;25.98;12.98;;;4.00;99.90;;;;;;5034372;28;20030;-56
2020/12/08 09:15:47;;;;;;;29.45;12.05;;;4.10;99.90;;;;;;5031644;28;20033;-57
2020/12/08 09:18:33;;;;;;;29.05;13.40;;;4.30;99.90;;;;;;5020528;28;20481;-58
2020/12/08 09:21:19;;;;;;;29.52;12.05;;;4.20;99.90;;;;;;5012534;28;20103;-54
2020/12/08 09:24:05;;;;;;;22.27;11.13;;;4.00;99.90;;;;;;5013423;28;20380;-56
2020/12/08 09:26:51;;;;;;;26.08;12.00;;;4.10;99.90;;;;;;5013012;28;20042;-51
2020/12/08 09:29:37;;;;;;;26.10;12.35;;;4.20;99.90;;;;;;5014169;28;20044;-57
2020/12/08 09:32:26;;;;;;;23.13;11.38;;;4.30;99.90;;;;;;5014604;28;20109;-57
2020/12/08 09:35:12;;;;;;;26.27;12.75;;;4.70;99.90;;;;;;5013641;28;20026;-58
2020/12/08 09:37:58;;;;;;;25.80;13.13;;;4.70;99.90;;;;;;5013598;28;20062;-58
2020/12/08 09:40:44;;;;;;;24.88;13.07;;;4.80;99.90;;;;;;5012930;28;20042;-58
2020/12/08 09:43:30;;;;;;;22.70;11.95;;;4.90;99.90;;;;;;5013802;28;20506;-58
2020/12/08 09:46:16;;;;;;;21.80;10.52;;;5.40;99.90;;;;;;5011421;28;20491;-58
2020/12/08 09:49:03;;;;;;;17.85;10.05;;;6.50;99.90;;;;;;5009863;28;20562;-58
2020/12/08 09:51:49;;;;;;;21.92;10.15;;;7.70;99.90;;;;;;5012455;28;20033;-55
2020/12/08 09:54:35;;;;;;;22.40;10.43;;;7.60;99.90;;;;;;5013074;28;20034;-58
2020/12/08 09:57:24;;;;;;;18.83;9.23;;;10.60;99.90;;;;;;5013629;28;20041;-58
2020/12/08 10:00:10;;;;;;;15.63;9.38;;;11.40;98.90;;;;;;5012073;28;20099;-56
2020/12/08 10:02:56;;;;;;;16.20;9.05;;;11.40;95.80;;;;;;5012597;28;20065;-56
2020/12/08 10:05:42;;;;;;;17.88;10.07;;;9.30;99.90;;;;;;5012025;28;20506;-56
2020/12/08 10:08:28;;;;;;;15.18;9.15;;;9.40;99.90;;;;;;5013335;28;20528;-56
2020/12/08 10:11:16;;;;;;;15.23;9.05;;;10.50;99.00;;;;;;5013228;28;20073;-56
2020/12/08 10:14:02;;;;;;;17.58;10.15;;;11.10;99.00;;;;;;5012897;28;20052;-56
2020/12/08 10:16:50;;;;;;;15.80;10.15;;;10.30;98.30;;;;;;5012082;28;20041;-56
2020/12/08 10:19:38;;;;;;;15.10;9.10;;;9.80;99.00;;;;;;5031869;28;20131;-58
2020/12/08 10:22:24;;;;;;;17.05;9.90;;;13.50;95.10;;;;;;5032861;28;20037;-57
2020/12/08 10:25:10;;;;;;;18.90;10.55;;;11.80;94.90;;;;;;5031539;28;20069;-58
2020/12/08 10:27:56;;;;;;;17.60;10.52;;;15.30;88.10;;;;;;5031665;28;20049;-57
2020/12/08 10:30:42;;;;;;;14.77;8.52;;;15.80;82.50;;;;;;5032152;28;20445;-58
2020/12/08 10:33:28;;;;;;;14.93;9.30;;;17.50;66.20;;;;;;5031431;28;20037;-57
2020/12/08 10:36:15;;;;;;;16.05;9.02;;;11.40;90.60;;;;;;5031401;28;20406;-55
2020/12/08 10:39:01;;;;;;;17.80;10.00;;;12.60;90.10;;;;;;5031902;28;20068;-57
2020/12/08 10:41:47;;;;;;;15.77;9.23;;;12.80;89.70;;;;;;5017402;28;20069;-57
2020/12/08 10:44:33;;;;;;;15.73;9.82;;;14.40;87.10;;;;;;5031409;28;20033;-57
2020/12/08 10:47:19;;;;;;;16.75;9.95;;;13.30;83.70;;;;;;5029298;28;20091;-58
2020/12/08 10:50:05;;;;;;;14.93;9.38;;;14.60;86.10;;;;;;5032039;28;20394;-57
2020/12/08 10:52:51;;;;;;;16.33;10.05;;;13.80;82.40;;;;;;5032129;28;20493;-56
2020/12/08 10:55:37;;;;;;;16.30;9.82;;;12.40;90.00;;;;;;5032125;28;20573;-57
2020/12/08 10:58:23;;;;;;;15.93;9.90;;;10.10;96.10;;;;;;5031193;28;20088;-57
2020/12/08 11:01:10;;;;;;;17.90;10.00;;;10.80;96.40;;;;;;5030340;28;20072;-56
2020/12/08 11:03:57;;;;;;;17.10;9.57;;;9.30;98.70;;;;;;5030631;28;20124;-56
2020/12/08 11:06:45;;;;;;;13.85;8.63;;;10.00;99.10;;;;;;5029459;28;20032;-57
2020/12/08 11:09:31;;;;;;;17.10;10.35;;;10.00;98.80;;;;;;5030683;28;20041;-56
2020/12/08 11:12:17;;;;;;;16.20;9.00;;;9.10;99.90;;;;;;5032052;28;20121;-58
2020/12/08 11:15:04;;;;;;;16.67;9.20;;;11.80;98.00;;;;;;5016874;28;20034;-56
2020/12/08 11:17:50;;;;;;;16.58;8.75;;;11.60;95.80;;;;;;5031852;28;20038;-57
2020/12/08 11:20:37;;;;;;;15.93;8.98;;;13.90;93.20;;;;;;5031351;28;20060;-57
2020/12/08 11:23:23;;;;;;;13.98;8.55;;;14.90;81.00;;;;;;5031105;28;20049;-56
2020/12/08 11:26:11;;;;;;;15.23;9.00;;;14.20;81.70;;;;;;5032017;28;20034;-57
2020/12/08 11:28:58;;;;;;;15.35;8.55;;;13.50;80.60;;;;;;5016202;28;20034;-57
2020/12/08 11:31:45;;;;;;;15.50;9.25;;;14.30;85.50;;;;;;5030595;28;20065;-56
2020/12/08 11:34:31;;;;;;;15.30;9.07;;;14.10;80.60;;;;;;5031366;28;20041;-57
2020/12/08 11:37:17;;;;;;;14.65;8.45;;;11.90;91.00;;;;;;5031119;28;20141;-55
2020/12/08 11:40:03;;;;;;;15.93;9.38;;;11.00;95.00;;;;;;5031422;28;20038;-56
2020/12/08 11:42:49;;;;;;;14.25;8.77;;;12.40;92.50;;;;;;5031080;28;20053;-55
2020/12/08 11:45:36;;;;;;;16.50;9.50;;;11.10;94.50;;;;;;5032012;28;20043;-55
2020/12/08 11:48:23;;;;;;;16.60;9.25;;;11.00;96.20;;;;;;5031785;28;20060;-56
2020/12/08 11:51:09;;;;;;;20.60;11.32;;;10.40;97.20;;;;;;5029141;28;20038;-57
2020/12/08 11:53:58;;;;;;;17.23;9.90;;;11.00;98.70;;;;;;5015417;28;20044;-56
2020/12/08 11:56:44;;;;;;;16.77;9.45;;;10.40;97.30;;;;;;5028310;28;20110;-56
2020/12/08 11:59:30;;;;;;;15.35;9.07;;;9.50;99.30;;;;;;5030413;28;20048;-57
2020/12/08 12:02:16;;;;;;;16.15;9.48;;;11.20;97.10;;;;;;5029137;28;20103;-57
2020/12/08 12:05:03;;;;;;;15.10;9.02;;;10.60;96.40;;;;;;5030943;28;20096;-56
2020/12/08 12:07:49;;;;;;;17.35;10.02;;;10.70;95.10;;;;;;5031135;28;20405;-55
2020/12/08 12:10:35;;;;;;;16.80;9.13;;;10.30;97.70;;;;;;5034487;28;20241;-57
2020/12/08 12:13:21;;;;;;;16.55;8.73;;;10.50;97.10;;;;;;5034171;28;20068;-57
2020/12/08 12:16:07;;;;;;;14.48;8.68;;;12.70;94.20;;;;;;5035475;28;20041;-57
2020/12/08 12:18:53;;;;;;;13.90;8.80;;;13.00;91.40;;;;;;5034185;28;20037;-56
2020/12/08 12:21:39;;;;;;;16.85;9.38;;;14.00;90.00;;;;;;5034126;28;20045;-57
2020/12/08 12:24:25;;;;;;;13.93;8.77;;;13.20;90.80;;;;;;5034089;28;20033;-57
2020/12/08 12:27:11;;;;;;;13.88;8.20;;;14.80;90.10;;;;;;5034876;28;20037;-56
2020/12/08 12:29:58;;;;;;;15.38;8.32;;;15.40;79.60;;;;;;5033817;28;20075;-56
2020/12/08 12:32:44;;;;;;;21.65;9.60;;;12.80;83.10;;;;;;5033617;28;20037;-57
2020/12/08 12:35:30;;;;;;;18.83;9.82;;;12.80;98.20;;;;;;5032917;28;20100;-54
2020/12/08 12:38:16;;;;;;;13.90;8.50;;;10.70;98.80;;;;;;5033872;28;20045;-57
2020/12/08 12:41:02;;;;;;;13.95;8.30;;;10.40;96.70;;;;;;5033953;28;20037;-54
2020/12/08 12:43:48;;;;;;;13.18;7.85;;;11.50;95.60;;;;;;5034745;28;20187;-56
2020/12/08 12:46:34;;;;;;;14.68;8.57;;;12.10;92.40;;;;;;5034081;28;20033;-56
2020/12/08 12:49:22;;;;;;;14.55;8.35;;;13.40;94.40;;;;;;5014027;28;20041;-57
2020/12/08 12:52:08;;;;;;;15.07;8.60;;;12.00;93.60;;;;;;5013454;28;20050;-57
2020/12/08 12:54:54;;;;;;;13.23;8.05;;;13.00;90.70;;;;;;5013537;28;20192;-55
2020/12/08 12:57:40;;;;;;;15.35;9.55;;;13.50;92.60;;;;;;5013983;28;20472;-55
2020/12/08 13:00:26;;;;;;;14.35;8.10;;;13.00;93.80;;;;;;5013628;28;20180;-56
2020/12/08 13:03:12;;;;;;;18.75;9.57;;;10.00;97.50;;;;;;5000668;28;20049;-56
2020/12/08 13:05:58;;;;;;;15.50;9.10;;;11.20;95.80;;;;;;5033977;28;20030;-56
2020/12/08 13:08:44;;;;;;;15.70;8.65;;;10.60;96.40;;;;;;5034478;28;20446;-54
2020/12/08 13:11:30;;;;;;;19.17;9.00;;;10.80;96.30;;;;;;5034139;28;20128;-56
2020/12/08 13:14:16;;;;;;;14.50;8.32;;;10.50;97.40;;;;;;5034044;28;20051;-54
2020/12/08 13:17:02;;;;;;;15.32;8.43;;;11.50;94.40;;;;;;5033695;28;20041;-56
2020/12/08 13:19:48;;;;;;;15.23;9.13;;;10.90;94.40;;;;;;5033282;28;20108;-56
2020/12/08 13:22:34;;;;;;;14.77;8.63;;;10.60;94.90;;;;;;5033181;28;20063;-57
2020/12/08 13:25:20;;;;;;;17.80;9.13;;;9.50;97.40;;;;;;5032730;28;20406;-56
2020/12/08 13:28:07;;;;;;;18.08;9.40;;;9.60;99.10;;;;;;5035295;28;20041;-56
2020/12/08 13:30:54;;;;;;;16.15;9.45;;;9.30;98.80;;;;;;5034908;28;20537;-57
2020/12/08 13:33:40;;;;;;;15.65;9.18;;;9.50;98.00;;;;;;5034077;28;20041;-56
2020/12/08 13:36:26;;;;;;;17.08;8.50;;;8.80;99.90;;;;;;5032685;28;20133;-55
2020/12/08 13:39:12;;;;;;;16.02;8.82;;;10.10;99.20;;;;;;5033058;28;20534;-56
2020/12/08 13:41:58;;;;;;;16.30;8.38;;;10.60;95.90;;;;;;5033183;28;20080;-56
2020/12/08 13:44:44;;;;;;;17.98;8.48;;;9.50;98.90;;;;;;5032564;28;20431;-56
2020/12/08 13:47:31;;;;;;;16.25;9.05;;;9.80;97.70;;;;;;5032867;28;20091;-56
2020/12/08 13:50:17;;;;;;;17.10;8.95;;;8.90;99.40;;;;;;5032545;28;20040;-57
2020/12/08 13:53:03;;;;;;;15.40;8.63;;;9.50;99.60;;;;;;5034389;28;20084;-56
2020/12/08 13:55:50;;;;;;;14.80;8.80;;;9.60;98.10;;;;;;5033680;28;20047;-57
2020/12/08 13:58:36;;;;;;;19.45;9.10;;;9.40;99.90;;;;;;5033188;28;20026;-57
2020/12/08 14:01:23;;;;;;;16.95;9.85;;;10.50;98.10;;;;;;5033112;28;20045;-56
2020/12/08 14:04:09;;;;;;;16.48;9.23;;;11.50;95.80;;;;;;5031492;28;20092;-54
2020/12/08 14:06:55;;;;;;;17.83;9.20;;;10.00;97.40;;;;;;5031692;28;20545;-57
2020/12/08 14:09:41;;;;;;;14.50;8.30;;;10.00;98.80;;;;;;5032986;28;20036;-56
2020/12/08 14:12:27;;;;;;;17.00;9.85;;;9.70;98.50;;;;;;5033412;28;20041;-57
2020/12/08 14:15:14;;;;;;;17.17;9.32;;;9.50;99.30;;;;;;5032698;28;20029;-57
2020/12/08 14:18:01;;;;;;;16.88;8.88;;;8.90;99.90;;;;;;5031820;28;20030;-53
2020/12/08 14:20:47;;;;;;;15.77;8.52;;;9.60;99.90;;;;;;5031579;28;20077;-57
2020/12/08 14:23:33;;;;;;;13.90;7.75;;;9.10;99.90;;;;;;5032015;28;20033;-57